• Join FlightAware (Why Join?)
  • Login
  • US Flag 
10:11PM EST


 

Airport Tracker/Info


-or-


 

Live Flight TrackerFlight Track Log ✈ EZY2285 ✈ 15-Apr-2013 ✈ EGGW / LTN - LIMC / MXP

Flight Track Log - Related Links

Times and Time Zones

All times are in EDT time to prevent confusion due to time zone crossing. See the EZY2285 flight status page for this flight to view local times or setup timezone preferences in your user account.

Time Position Orientation Groundspeed Altitude Reporting Facility
EDT Latitude Longitude Course Direction KTS MPH feet Rate Location/Type
01:26PM 51.2304 0.7395 133° Southeast  Level Estimated
01:27PM 51.1763 0.8304 134° Southeast  Level Estimated
01:28PM 51.1220 0.9211 134° Southeast  Level Estimated
01:29PM 51.0677 1.0115 134° Southeast  Level Estimated
01:30PM 51.0134 1.1018 134° Southeast  Level Estimated
01:31PM 50.9589 1.1919 134° Southeast  Level Estimated
01:32PM 50.9044 1.2817 134° Southeast  Level Estimated
01:33PM 50.8498 1.3714 134° Southeast  Level Estimated
01:34PM 50.7952 1.4608 134° Southeast  Level Estimated
01:35PM 50.7405 1.5500 134° Southeast  Level Estimated
01:36PM 50.6857 1.6390 134° Southeast  Level Estimated
01:37PM 50.6309 1.7278 134° Southeast  Level Estimated
01:38PM 50.5759 1.8164 134° Southeast  Level Estimated
01:39PM 50.5210 1.9048 134° Southeast  Level Estimated
01:40PM 50.4616 1.9999 134° Southeast  Level Estimated
01:41PM 50.4021 2.0948 134° Southeast  Level Estimated
01:42PM 50.3426 2.1894 135° Southeast  Level Estimated
01:43PM 50.2830 2.2838 135° Southeast  Level Estimated
01:44PM 50.2233 2.3779 135° Southeast  Level Estimated
01:45PM 50.1636 2.4718 135° Southeast  Level Estimated
01:46PM 50.1038 2.5655 135° Southeast  Level Estimated
01:47PM 50.0439 2.6589 135° Southeast  Level Estimated
01:48PM 49.9839 2.7521 135° Southeast  Level Estimated
01:49PM 49.9238 2.8451 135° Southeast  Level Estimated
01:50PM 49.8637 2.9378 135° Southeast  Level Estimated
01:51PM 49.8035 3.0303 135° Southeast  Level Estimated
01:52PM 49.7432 3.1226 135° Southeast  Level Estimated
01:53PM 49.6829 3.2147 135° Southeast  Level Estimated
01:54PM 49.6225 3.3065 135° Southeast  Level Estimated
01:55PM 49.5620 3.3981 135° Southeast  Level Estimated
01:56PM 49.5014 3.4895 136° Southeast  Level Estimated
01:57PM 49.4408 3.5806 136° Southeast  Level Estimated
01:58PM 49.3801 3.6715 136° Southeast  Level Estimated
01:59PM 49.3193 3.7622 136° Southeast  Level Estimated
02:00PM 49.2584 3.8527 136° Southeast  Level Estimated
02:01PM 49.1975 3.9429 136° Southeast  Level Estimated
02:02PM 49.1365 4.0330 136° Southeast  Level Estimated
02:03PM 49.0755 4.1228 136° Southeast  Level Estimated
02:04PM 49.0143 4.2123 136° Southeast  Level Estimated
02:05PM 48.9531 4.3017 136° Southeast  Level Estimated
02:06PM 48.8919 4.3908 136° Southeast  Level Estimated
02:07PM 48.8305 4.4798 136° Southeast  Level Estimated
02:08PM 48.7691 4.5685 136° Southeast  Level Estimated
02:09PM 48.7077 4.6570 136° Southeast  Level Estimated
02:10PM 48.6461 4.7453 137° Southeast  Level Estimated
02:11PM 48.5845 4.8333 137° Southeast  Level Estimated
02:12PM 48.5228 4.9212 137° Southeast  Level Estimated
02:13PM 48.4611 5.0088 137° Southeast  Level Estimated
02:14PM 48.3993 5.0962 137° Southeast  Level Estimated
02:15PM 48.3374 5.1834 137° Southeast  Level Estimated
02:16PM 48.2755 5.2704 137° Southeast  Level Estimated
02:17PM 48.2135 5.3572 137° Southeast  Level Estimated
02:18PM 48.1514 5.4438 137° Southeast  Level Estimated
02:19PM 48.0893 5.5301 137° Southeast  Level Estimated
02:20PM 48.0271 5.6163 137° Southeast  Level Estimated
02:21PM 47.9648 5.7022 137° Southeast  Level Estimated
02:22PM 47.9025 5.7880 137° Southeast  Level Estimated
02:23PM 47.8401 5.8735 137° Southeast  Level Estimated
02:24PM 47.7776 5.9588 137° Southeast  Level Estimated
02:25PM 47.7151 6.0440 137° Southeast  Level Estimated
02:26PM 47.6525 6.1289 138° Southeast  Level Estimated
02:27PM 47.5899 6.2136 138° Southeast  Level Estimated
02:28PM 47.5272 6.2981 138° Southeast  Level Estimated
02:29PM 47.4644 6.3824 138° Southeast  Level Estimated
02:30PM 47.4016 6.4665 138° Southeast  Level Estimated
02:31PM 47.3387 6.5504 138° Southeast  Level Estimated
02:32PM 47.2758 6.6341 138° Southeast  Level Estimated
02:33PM 47.2128 6.7176 138° Southeast  Level Estimated
02:34PM 47.1497 6.8010 138° Southeast  Level Estimated
02:35PM 47.0866 6.8841 138° Southeast  Level Estimated
02:36PM 47.0234 6.9670 138° Southeast  Level Estimated
02:37PM 46.9601 7.0497 138° Southeast  Level Estimated
02:38PM 46.8955 7.1339 138° Southeast  Level Estimated
02:39PM 46.8309 7.2179 138° Southeast  Level Estimated
02:40PM 46.7662 7.3016 138° Southeast  Level Estimated
02:41PM 46.7014 7.3852 138° Southeast  Level Estimated
02:42PM 46.6366 7.4686 139° Southeast  Level Estimated
02:43PM 46.5717 7.5518 139° Southeast  Level Estimated
02:44PM 46.5068 7.6347 139° Southeast  Level Estimated
02:45PM 46.4418 7.7175 139° Southeast  Level Estimated
02:46PM 46.3767 7.8001 139° Southeast  Level Estimated
02:47PM 46.3116 7.8825 139° Southeast  Level Estimated
02:48PM 46.2464 7.9646 139° Southeast  Level Estimated
02:49PM 46.1812 8.0466 139° Southeast  Level Estimated
02:50PM 46.1159 8.1284 139° Southeast  Level Estimated
02:51PM 46.0505 8.2100 139° Southeast  Level Estimated
02:52PM 45.9851 8.2914 139° Southeast  Level Estimated
02:53PM 45.9197 8.3727 139° Southeast  Level Estimated
02:54PM 45.8541 8.4537 139° Southeast  Level Estimated
02:55PM 45.7886 8.5345 139° Southeast  Level Estimated
02:56PM 45.7229 8.6152 139° Southeast  Level Estimated
02:57PM 45.6572 8.6956 139° Southeast  Level Estimated